Time;durP1;ratioP1;P1;durP2;ratioP2;P2;SDS_P1;SDS_P2;PMS_P1;PMS_P2;Temp;Humidity;BMP_temperature;BMP_pressure;BME280_temperature;BME280_humidity;BME280_pressure;Samples;Min_cycle;Max_cycle;Signal;HPM_P1;HPM_P2
2021/09/21 00:00:34;;;;;;;10.43;6.25;;;10.40;99.90;;;;;;5054059;28;20049;-67
2021/09/21 00:03:00;;;;;;;8.93;6.15;;;10.30;99.90;;;;;;5054028;28;20047;-67
2021/09/21 00:05:25;;;;;;;12.48;6.88;;;10.20;99.90;;;;;;5053966;28;20496;-66
2021/09/21 00:07:51;;;;;;;9.23;6.13;;;10.10;99.90;;;;;;5053956;28;20021;-67
2021/09/21 00:10:17;;;;;;;8.05;5.28;;;10.00;99.90;;;;;;5054190;28;20037;-67
2021/09/21 00:12:43;;;;;;;10.88;6.25;;;9.80;99.90;;;;;;5053864;28;20067;-67
2021/09/21 00:15:11;;;;;;;10.27;5.78;;;9.70;99.90;;;;;;5053842;28;20405;-67
2021/09/21 00:17:37;;;;;;;9.07;5.90;;;9.60;99.90;;;;;;5053833;28;20032;-66
2021/09/21 00:20:03;;;;;;;9.60;6.80;;;9.50;99.90;;;;;;5052829;28;20021;-66
2021/09/21 00:22:29;;;;;;;14.95;7.82;;;9.40;99.90;;;;;;5053786;28;20037;-66
2021/09/21 00:24:54;;;;;;;11.82;6.90;;;9.40;99.90;;;;;;5053997;28;20505;-66
2021/09/21 00:27:20;;;;;;;13.18;6.85;;;9.40;99.90;;;;;;5053537;28;20035;-66
2021/09/21 00:29:46;;;;;;;11.93;7.10;;;9.30;99.90;;;;;;5053407;28;20086;-66
2021/09/21 00:32:16;;;;;;;9.95;7.38;;;9.40;99.90;;;;;;5053478;28;20079;-66
2021/09/21 00:34:43;;;;;;;11.55;6.90;;;9.40;99.90;;;;;;5053873;28;20025;-67
2021/09/21 00:37:12;;;;;;;12.25;7.55;;;9.40;99.90;;;;;;5053866;28;20056;-66
2021/09/21 00:39:39;;;;;;;12.48;6.82;;;9.30;99.90;;;;;;5053916;28;20378;-66
2021/09/21 00:42:05;;;;;;;9.02;6.30;;;9.30;99.90;;;;;;5053851;28;20025;-66
2021/09/21 00:44:32;;;;;;;10.15;7.00;;;9.20;99.90;;;;;;5052378;28;20032;-66
2021/09/21 00:46:57;;;;;;;12.00;6.95;;;9.20;99.90;;;;;;5052019;28;20025;-66
2021/09/21 00:49:23;;;;;;;13.73;7.93;;;9.10;99.90;;;;;;5053482;28;20048;-66
2021/09/21 00:51:49;;;;;;;21.60;7.57;;;9.10;99.90;;;;;;5051905;28;20417;-66
2021/09/21 00:54:14;;;;;;;12.35;6.93;;;9.00;99.90;;;;;;5053179;28;20036;-66
2021/09/21 00:56:40;;;;;;;12.50;7.10;;;9.00;99.90;;;;;;5053713;28;20025;-66
2021/09/21 00:59:06;;;;;;;10.27;7.25;;;8.90;99.90;;;;;;5053406;28;20028;-66
2021/09/21 01:01:31;;;;;;;9.10;6.70;;;8.80;99.90;;;;;;5053663;28;20048;-66
2021/09/21 01:03:57;;;;;;;12.43;7.50;;;8.80;99.90;;;;;;5053658;28;20482;-66
2021/09/21 01:06:22;;;;;;;10.93;7.65;;;8.80;99.90;;;;;;5053602;28;20486;-66
2021/09/21 01:08:48;;;;;;;10.15;7.05;;;8.80;99.90;;;;;;5053339;28;20100;-66
2021/09/21 01:11:14;;;;;;;9.45;6.97;;;8.70;99.90;;;;;;5053558;28;20431;-66
2021/09/21 01:13:40;;;;;;;10.23;6.95;;;8.70;99.90;;;;;;5053469;28;20029;-66
2021/09/21 01:16:06;;;;;;;10.43;6.63;;;8.60;99.90;;;;;;5053233;28;20105;-66
2021/09/21 01:18:33;;;;;;;11.93;7.18;;;8.60;99.90;;;;;;5053171;28;20039;-66
2021/09/21 01:21:08;;;;;;;11.73;8.07;;;8.50;99.90;;;;;;5053478;28;20083;-66
2021/09/21 01:23:52;;;;;;;9.98;6.60;;;8.50;99.90;;;;;;5053443;28;20051;-66
2021/09/21 01:26:19;;;;;;;10.38;6.90;;;8.40;99.90;;;;;;5053455;28;20024;-67
2021/09/21 01:28:45;;;;;;;12.88;8.18;;;8.40;99.90;;;;;;5053118;28;20029;-66
2021/09/21 01:31:11;;;;;;;11.77;7.72;;;8.30;99.90;;;;;;5052384;28;20025;-66
2021/09/21 01:33:37;;;;;;;11.10;8.10;;;8.40;99.90;;;;;;5052456;28;20071;-66
2021/09/21 01:36:03;;;;;;;12.98;7.88;;;8.30;99.90;;;;;;5053330;28;20056;-66
2021/09/21 01:38:29;;;;;;;11.85;7.63;;;8.30;99.90;;;;;;5053042;28;20429;-66
2021/09/21 01:40:55;;;;;;;14.77;8.20;;;8.20;99.90;;;;;;5056239;28;20025;-66
2021/09/21 01:43:21;;;;;;;14.52;8.52;;;8.10;99.90;;;;;;5056939;28;20031;-66
2021/09/21 01:45:46;;;;;;;12.52;7.38;;;8.10;99.90;;;;;;5055411;28;20070;-66
2021/09/21 01:48:12;;;;;;;12.88;7.93;;;8.10;99.90;;;;;;5056576;28;20028;-66
2021/09/21 01:50:45;;;;;;;11.75;7.13;;;8.00;99.90;;;;;;5056540;28;20052;-66
2021/09/21 01:53:21;;;;;;;14.23;7.88;;;7.90;99.90;;;;;;5056685;28;20025;-65
2021/09/21 01:59:05;;;;;;;13.63;8.18;;;7.80;99.90;;;;;;5055901;28;20112;-66
2021/09/21 02:01:21;;;;;;;13.30;8.32;;;7.80;99.90;;;;;;5055906;28;20027;-65
2021/09/21 02:03:48;;;;;;;15.48;8.10;;;7.70;99.90;;;;;;5055400;28;20079;-66
2021/09/21 02:06:15;;;;;;;14.43;8.32;;;7.80;99.90;;;;;;5056471;28;20027;-66
2021/09/21 02:08:40;;;;;;;13.07;8.18;;;7.70;99.90;;;;;;5056444;28;20078;-66
2021/09/21 02:11:06;;;;;;;12.55;8.30;;;7.60;99.90;;;;;;5055849;28;20029;-66
2021/09/21 02:13:32;;;;;;;14.07;7.70;;;7.60;99.90;;;;;;5056267;28;20060;-66
2021/09/21 02:15:58;;;;;;;15.07;8.60;;;7.50;99.90;;;;;;5056047;28;20021;-67
2021/09/21 02:18:24;;;;;;;12.73;8.60;;;7.50;99.90;;;;;;5055976;28;20021;-66
2021/09/21 02:20:49;;;;;;;13.65;8.70;;;7.50;99.90;;;;;;5056219;28;20463;-66
2021/09/21 02:23:15;;;;;;;11.68;7.85;;;7.40;99.90;;;;;;5055630;28;20493;-66
2021/09/21 02:25:41;;;;;;;15.15;8.82;;;7.40;99.90;;;;;;5055855;28;20392;-66
2021/09/21 02:28:07;;;;;;;12.98;9.35;;;7.40;99.90;;;;;;5055804;28;20467;-65
2021/09/21 02:30:32;;;;;;;14.73;9.32;;;7.40;99.90;;;;;;5056024;28;20036;-66
2021/09/21 02:32:58;;;;;;;14.85;9.88;;;7.30;99.90;;;;;;5053907;28;20135;-66
2021/09/21 02:35:25;;;;;;;13.95;9.18;;;7.30;99.90;;;;;;5055653;28;20033;-66
2021/09/21 02:37:51;;;;;;;15.32;9.48;;;7.30;99.90;;;;;;5055939;28;20045;-65
2021/09/21 02:40:16;;;;;;;15.30;9.25;;;7.20;99.90;;;;;;5055876;28;20366;-66
2021/09/21 02:42:43;;;;;;;15.57;9.65;;;7.20;99.90;;;;;;5055843;28;20033;-66
2021/09/21 02:45:09;;;;;;;13.57;9.40;;;7.20;99.90;;;;;;5055781;28;20467;-66
2021/09/21 02:47:35;;;;;;;14.73;9.13;;;7.20;99.90;;;;;;5055737;28;20028;-66
2021/09/21 02:50:01;;;;;;;16.48;10.23;;;7.20;99.90;;;;;;5055695;28;20398;-65
2021/09/21 02:52:26;;;;;;;17.33;9.65;;;7.20;99.90;;;;;;5054107;28;20104;-65
2021/09/21 02:54:52;;;;;;;16.60;10.02;;;7.20;99.90;;;;;;5055546;28;20524;-66
2021/09/21 02:57:18;;;;;;;19.30;10.93;;;7.20;99.90;;;;;;5055558;28;20032;-66
2021/09/21 02:59:44;;;;;;;18.58;10.80;;;7.20;99.90;;;;;;5055473;28;20028;-66
2021/09/21 03:02:09;;;;;;;17.73;10.63;;;7.10;99.90;;;;;;5055486;28;20370;-65
2021/09/21 03:04:39;;;;;;;17.63;10.75;;;7.20;99.90;;;;;;5055386;28;20458;-66
2021/09/21 03:07:09;;;;;;;19.83;10.60;;;7.20;99.90;;;;;;5055383;28;20025;-66
2021/09/21 03:09:50;;;;;;;19.85;12.23;;;7.20;99.90;;;;;;5054996;28;20025;-66
2021/09/21 03:17:46;;;;;;;19.25;12.13;;;7.30;99.90;;;;;;5054464;28;20113;-65
2021/09/21 03:20:12;;;;;;;31.92;15.82;;;7.40;99.90;;;;;;5054818;28;20474;-66
2021/09/21 03:22:37;;;;;;;26.65;15.30;;;7.70;99.90;;;;;;5053542;28;20471;-66
2021/09/21 03:25:03;;;;;;;23.55;13.50;;;7.80;99.90;;;;;;5054970;28;20024;-66
2021/09/21 03:27:29;;;;;;;24.23;14.07;;;7.90;99.90;;;;;;5053520;28;20025;-66
2021/09/21 03:29:55;;;;;;;22.77;14.27;;;7.90;99.90;;;;;;5054610;28;20032;-66
2021/09/21 03:32:21;;;;;;;25.85;14.15;;;7.90;99.90;;;;;;5069429;28;20082;-66
2021/09/21 03:34:46;;;;;;;24.30;14.55;;;8.00;99.90;;;;;;5054547;28;20031;-65
2021/09/21 03:37:12;;;;;;;22.90;13.63;;;8.00;99.90;;;;;;5054755;28;20071;-66
2021/09/21 03:39:40;;;;;;;20.50;13.18;;;8.00;99.90;;;;;;5054631;28;20029;-66
2021/09/21 03:42:05;;;;;;;18.88;13.30;;;8.00;99.90;;;;;;5054512;28;20025;-66
2021/09/21 03:44:31;;;;;;;18.17;12.25;;;8.00;99.90;;;;;;5054648;28;20037;-66
2021/09/21 03:46:57;;;;;;;24.95;13.77;;;8.10;99.90;;;;;;5054609;28;20060;-66
2021/09/21 03:49:23;;;;;;;21.48;14.20;;;8.10;99.90;;;;;;5054222;28;20029;-66
2021/09/21 03:51:49;;;;;;;19.45;12.52;;;8.10;99.90;;;;;;5054973;28;20082;-66
2021/09/21 03:54:15;;;;;;;26.15;14.20;;;8.10;99.90;;;;;;5054500;28;20126;-66
2021/09/21 03:56:41;;;;;;;21.05;13.48;;;8.10;99.90;;;;;;5054432;28;20056;-66
2021/09/21 03:59:07;;;;;;;23.38;14.85;;;8.10;99.90;;;;;;5054137;28;20418;-66
2021/09/21 04:01:33;;;;;;;20.92;13.65;;;8.20;99.90;;;;;;5054082;28;20025;-66
2021/09/21 04:04:00;;;;;;;22.00;13.90;;;8.10;99.90;;;;;;5053382;28;20029;-66
2021/09/21 04:06:26;;;;;;;21.67;13.77;;;8.10;99.90;;;;;;5052801;28;20021;-66
2021/09/21 04:08:53;;;;;;;17.50;12.45;;;8.10;99.90;;;;;;5054246;28;20036;-67
2021/09/21 04:11:20;;;;;;;21.77;14.02;;;8.10;99.90;;;;;;5054228;28;20470;-66
2021/09/21 04:13:46;;;;;;;18.60;12.63;;;8.00;99.90;;;;;;5054085;28;20509;-67
2021/09/21 04:16:12;;;;;;;20.27;12.48;;;7.90;99.90;;;;;;5054191;28;20033;-66
2021/09/21 04:18:38;;;;;;;19.15;12.95;;;7.80;99.90;;;;;;5053825;28;20028;-65
2021/09/21 04:21:04;;;;;;;17.02;11.68;;;7.70;99.90;;;;;;5052310;28;20029;-66
2021/09/21 04:23:29;;;;;;;18.00;11.65;;;7.70;99.90;;;;;;5053790;28;20033;-66
2021/09/21 04:25:55;;;;;;;17.25;12.07;;;7.60;99.90;;;;;;5053777;28;20021;-66
2021/09/21 04:28:21;;;;;;;18.10;12.60;;;7.50;99.90;;;;;;5053990;28;20025;-66
2021/09/21 04:30:50;;;;;;;16.33;11.93;;;7.40;99.90;;;;;;5054000;28;20032;-66
2021/09/21 04:33:16;;;;;;;17.00;11.07;;;7.30;99.90;;;;;;5053430;28;20064;-66
2021/09/21 04:35:42;;;;;;;22.52;12.80;;;7.30;99.90;;;;;;5053947;28;20091;-66
2021/09/21 04:38:09;;;;;;;19.70;12.63;;;7.20;99.90;;;;;;5053642;28;20486;-66
2021/09/21 04:40:35;;;;;;;18.23;11.82;;;7.20;99.90;;;;;;5052360;28;20474;-66
2021/09/21 04:43:00;;;;;;;18.52;12.95;;;7.10;99.90;;;;;;5052083;28;20075;-66
2021/09/21 04:45:26;;;;;;;19.08;12.55;;;7.10;99.90;;;;;;5053267;28;20082;-65
2021/09/21 04:47:51;;;;;;;18.00;12.43;;;7.10;99.90;;;;;;5052660;28;20036;-66
2021/09/21 04:50:17;;;;;;;22.20;13.18;;;7.00;99.90;;;;;;5053789;28;20485;-66
2021/09/21 04:52:42;;;;;;;21.02;13.45;;;7.00;99.90;;;;;;5053660;28;20100;-66
2021/09/21 04:55:09;;;;;;;20.25;13.38;;;7.00;99.90;;;;;;5053443;28;20501;-66
2021/09/21 04:57:35;;;;;;;21.98;13.77;;;6.90;99.90;;;;;;5053708;28;20078;-66
2021/09/21 05:00:00;;;;;;;26.92;16.75;;;6.90;99.90;;;;;;5053443;28;20079;-65
2021/09/21 05:02:26;;;;;;;23.42;14.80;;;6.90;99.90;;;;;;5053415;28;20021;-66
2021/09/21 05:04:51;;;;;;;22.13;14.48;;;6.90;99.90;;;;;;5053652;28;20025;-66
2021/09/21 05:07:17;;;;;;;24.55;15.10;;;6.80;99.90;;;;;;5053384;28;20044;-66
2021/09/21 05:09:43;;;;;;;24.42;15.60;;;6.80;99.90;;;;;;5053022;28;20025;-66
2021/09/21 05:12:08;;;;;;;22.90;15.65;;;6.80;99.90;;;;;;5053231;28;20052;-66
2021/09/21 05:14:34;;;;;;;28.17;18.13;;;6.80;99.90;;;;;;5054473;28;20539;-66
2021/09/21 05:17:00;;;;;;;28.13;17.77;;;6.80;99.90;;;;;;5057174;28;20083;-65
2021/09/21 05:19:25;;;;;;;28.02;17.10;;;6.80;99.90;;;;;;5057023;28;20032;-66
2021/09/21 05:21:51;;;;;;;26.98;17.88;;;6.80;99.90;;;;;;5057201;28;20108;-66
2021/09/21 05:24:17;;;;;;;24.98;17.52;;;6.70;99.90;;;;;;5057195;28;20417;-66
2021/09/21 05:26:42;;;;;;;28.90;18.70;;;6.70;99.90;;;;;;5056628;28;20028;-66
2021/09/21 05:29:08;;;;;;;30.98;20.27;;;6.70;99.90;;;;;;5056903;28;20092;-66
2021/09/21 05:31:33;;;;;;;32.75;18.63;;;6.70;99.90;;;;;;5057133;28;20493;-66
2021/09/21 05:34:00;;;;;;;28.17;18.17;;;6.70;99.90;;;;;;5056449;28;20505;-66
2021/09/21 05:36:26;;;;;;;28.08;18.40;;;6.70;99.90;;;;;;5057062;28;20017;-65
2021/09/21 05:38:52;;;;;;;26.75;18.05;;;6.70;99.90;;;;;;5056704;28;20032;-66
2021/09/21 05:41:17;;;;;;;28.45;18.27;;;6.70;99.90;;;;;;5056990;28;20027;-66
2021/09/21 05:43:43;;;;;;;28.85;18.08;;;6.80;99.90;;;;;;5056614;28;20060;-65
2021/09/21 05:46:08;;;;;;;26.27;17.15;;;6.80;99.90;;;;;;5056854;28;20033;-66
2021/09/21 05:48:34;;;;;;;28.00;18.15;;;6.90;99.90;;;;;;5056488;28;20090;-66
2021/09/21 05:50:59;;;;;;;29.98;18.38;;;6.90;99.90;;;;;;5056047;28;20033;-66
2021/09/21 05:53:25;;;;;;;27.35;17.23;;;6.90;99.90;;;;;;5056797;28;20099;-66
2021/09/21 05:55:51;;;;;;;26.77;17.75;;;6.90;99.90;;;;;;5055080;28;20029;-66
2021/09/21 05:58:17;;;;;;;31.50;17.85;;;7.00;99.90;;;;;;5056605;28;20536;-66
2021/09/21 06:00:42;;;;;;;40.45;18.45;;;7.10;99.90;;;;;;5056571;28;20052;-66
2021/09/21 06:03:08;;;;;;;39.17;19.13;;;7.20;99.90;;;;;;5055074;28;20497;-66
2021/09/21 06:05:34;;;;;;;43.35;18.90;;;7.30;99.90;;;;;;5055769;28;20400;-66
2021/09/21 06:08:00;;;;;;;43.28;18.08;;;7.50;99.90;;;;;;5056059;28;20036;-66
2021/09/21 06:10:25;;;;;;;39.17;18.17;;;7.70;99.90;;;;;;5056257;28;20315;-66
2021/09/21 06:12:51;;;;;;;31.38;16.95;;;7.80;99.90;;;;;;5055975;28;20025;-66
2021/09/21 06:15:19;;;;;;;37.00;21.98;;;7.90;99.90;;;;;;5054412;28;20029;-66
2021/09/21 06:17:45;;;;;;;39.08;19.40;;;8.20;99.90;;;;;;5055874;28;20025;-66
2021/09/21 06:20:12;;;;;;;30.48;17.45;;;8.50;99.90;;;;;;5056206;28;20051;-66
2021/09/21 06:22:40;;;;;;;31.55;17.92;;;8.80;99.90;;;;;;5056192;28;20466;-66
2021/09/21 06:25:07;;;;;;;24.45;16.25;;;9.30;99.90;;;;;;5055815;28;20017;-67
2021/09/21 06:27:34;;;;;;;30.77;15.20;;;9.80;99.90;;;;;;5055467;28;20099;-67
2021/09/21 06:30:01;;;;;;;20.20;13.70;;;10.20;99.90;;;;;;5055472;28;20021;-67
2021/09/21 06:32:27;;;;;;;22.10;13.30;;;10.50;99.90;;;;;;5055187;28;20036;-67
2021/09/21 06:34:53;;;;;;;19.42;13.65;;;11.40;99.90;;;;;;5055399;28;20097;-67
2021/09/21 06:37:18;;;;;;;25.48;15.57;;;11.20;99.90;;;;;;5055926;28;20482;-67
2021/09/21 06:39:44;;;;;;;26.65;14.65;;;11.10;99.90;;;;;;5055763;28;20025;-67
2021/09/21 06:42:09;;;;;;;23.58;15.73;;;11.00;99.90;;;;;;5055792;28;20025;-67
2021/09/21 06:44:35;;;;;;;24.15;14.90;;;11.30;99.90;;;;;;5055350;28;20044;-67
2021/09/21 06:47:00;;;;;;;21.35;14.50;;;11.30;99.90;;;;;;5073729;28;20020;-67
2021/09/21 06:49:26;;;;;;;20.15;13.10;;;11.10;99.90;;;;;;5070621;28;20086;-67
2021/09/21 06:51:52;;;;;;;21.45;13.77;;;11.00;99.90;;;;;;5069771;28;20421;-66
2021/09/21 06:54:18;;;;;;;19.35;12.65;;;11.00;99.90;;;;;;5075150;28;20032;-67
2021/09/21 06:56:43;;;;;;;21.08;12.55;;;11.30;99.90;;;;;;5073440;28;20029;-67
2021/09/21 06:59:09;;;;;;;20.45;14.07;;;11.60;99.90;;;;;;5064231;28;20428;-67
2021/09/21 07:01:34;;;;;;;18.05;13.10;;;11.80;99.90;;;;;;5072691;28;20542;-67
2021/09/21 07:04:00;;;;;;;22.30;13.02;;;12.00;99.90;;;;;;5074176;28;20390;-67
2021/09/21 07:06:26;;;;;;;18.60;12.73;;;12.10;99.90;;;;;;5080895;28;20063;-67
2021/09/21 07:08:51;;;;;;;19.15;12.23;;;12.10;99.90;;;;;;5073399;28;20032;-67
2021/09/21 07:11:19;;;;;;;24.50;13.45;;;12.10;99.90;;;;;;5073724;28;20032;-67
2021/09/21 07:13:45;;;;;;;18.40;12.82;;;11.90;99.90;;;;;;5073678;28;20054;-67
2021/09/21 07:16:11;;;;;;;21.25;14.82;;;11.80;99.90;;;;;;5074200;28;20024;-66
2021/09/21 07:18:36;;;;;;;21.88;14.45;;;11.90;99.90;;;;;;5084028;28;20032;-67
2021/09/21 07:21:02;;;;;;;17.13;13.07;;;11.90;99.90;;;;;;5075615;28;20059;-67
2021/09/21 07:23:28;;;;;;;21.15;13.27;;;11.90;99.90;;;;;;5073898;28;20029;-67
2021/09/21 07:25:53;;;;;;;20.92;14.10;;;12.20;99.90;;;;;;5056858;28;20032;-67
2021/09/21 07:28:19;;;;;;;22.48;15.13;;;12.00;99.90;;;;;;5070984;28;20024;-67
2021/09/21 07:30:44;;;;;;;22.92;15.43;;;12.00;99.90;;;;;;5073210;28;20024;-67
2021/09/21 07:33:15;;;;;;;23.80;15.15;;;12.10;99.90;;;;;;5073590;28;20486;-67
2021/09/21 07:35:40;;;;;;;20.83;13.88;;;12.20;99.90;;;;;;5073323;28;20020;-67
2021/09/21 07:38:06;;;;;;;23.65;15.48;;;12.30;99.90;;;;;;5073222;28;20039;-67
2021/09/21 07:40:35;;;;;;;22.80;14.25;;;12.50;99.90;;;;;;5073192;28;20028;-67
2021/09/21 07:43:02;;;;;;;25.63;14.18;;;12.80;99.90;;;;;;5073769;28;20021;-67
2021/09/21 07:45:28;;;;;;;21.05;14.73;;;13.10;99.90;;;;;;5073818;28;20035;-67
2021/09/21 07:47:54;;;;;;;21.88;12.63;;;13.10;99.90;;;;;;5073495;28;20099;-67
2021/09/21 07:50:19;;;;;;;15.70;11.52;;;13.70;99.90;;;;;;5071824;28;20035;-67
2021/09/21 07:52:45;;;;;;;16.80;12.73;;;13.60;99.90;;;;;;5072574;28;20041;-67
2021/09/21 07:55:11;;;;;;;22.55;13.50;;;13.70;99.90;;;;;;5073306;28;20410;-67
2021/09/21 07:57:38;;;;;;;20.70;13.15;;;13.80;99.90;;;;;;5073885;28;20056;-67
2021/09/21 08:00:07;;;;;;;21.05;14.07;;;13.80;99.90;;;;;;5073205;28;20078;-67
2021/09/21 08:02:32;;;;;;;18.83;12.82;;;13.80;99.90;;;;;;5073256;28;20028;-67
2021/09/21 08:04:58;;;;;;;20.35;12.30;;;14.10;99.90;;;;;;5072917;28;20032;-67
2021/09/21 08:07:25;;;;;;;19.23;12.30;;;14.20;99.90;;;;;;5073193;28;20047;-67
2021/09/21 08:09:52;;;;;;;17.60;12.25;;;14.40;99.90;;;;;;5072928;28;20025;-67
2021/09/21 08:12:17;;;;;;;16.17;11.98;;;14.80;99.90;;;;;;5071441;28;20032;-67
2021/09/21 08:14:47;;;;;;;16.75;12.73;;;14.80;99.90;;;;;;5073031;28;20138;-67
2021/09/21 08:17:13;;;;;;;17.42;12.32;;;14.50;99.90;;;;;;5071774;28;20085;-67
2021/09/21 08:19:38;;;;;;;22.25;13.52;;;14.40;99.90;;;;;;5072974;28;20445;-67
2021/09/21 08:22:04;;;;;;;27.77;13.68;;;14.50;99.90;;;;;;5073423;28;20028;-67
2021/09/21 08:24:29;;;;;;;20.50;13.60;;;14.30;99.90;;;;;;5072913;28;20373;-67
2021/09/21 08:26:55;;;;;;;20.77;13.38;;;14.10;99.90;;;;;;5073107;28;20413;-67
2021/09/21 08:29:20;;;;;;;17.25;12.43;;;14.20;99.90;;;;;;5070065;28;20021;-66
2021/09/21 08:31:46;;;;;;;19.45;12.48;;;14.20;99.90;;;;;;5064103;28;20074;-67
2021/09/21 08:34:11;;;;;;;18.30;11.90;;;14.40;99.90;;;;;;5072204;28;20048;-67
2021/09/21 08:36:37;;;;;;;17.67;11.45;;;14.70;99.90;;;;;;5071323;28;20526;-67
2021/09/21 08:39:04;;;;;;;20.88;11.90;;;14.70;99.90;;;;;;5069979;28;20071;-67
2021/09/21 08:41:30;;;;;;;14.60;11.63;;;14.60;99.90;;;;;;5070528;28;20086;-67
2021/09/21 08:43:56;;;;;;;13.77;10.60;;;15.10;99.90;;;;;;5072981;28;20060;-67
2021/09/21 08:46:22;;;;;;;14.77;11.00;;;15.50;99.90;;;;;;5072323;28;20455;-67
2021/09/21 08:48:49;;;;;;;17.25;11.43;;;15.70;99.90;;;;;;5071535;28;20382;-67
2021/09/21 08:51:14;;;;;;;18.05;11.25;;;16.30;99.90;;;;;;5075691;28;20029;-68
2021/09/21 08:53:40;;;;;;;16.33;10.73;;;16.60;99.90;;;;;;5075281;28;20393;-67
2021/09/21 08:56:06;;;;;;;17.65;11.48;;;16.50;99.90;;;;;;5077318;28;20024;-68
2021/09/21 08:58:32;;;;;;;15.88;10.70;;;16.30;99.90;;;;;;5076106;28;20076;-67
2021/09/21 09:01:09;;;;;;;17.65;11.15;;;16.10;99.90;;;;;;5075479;28;20059;-67
2021/09/21 09:03:35;;;;;;;14.73;10.30;;;16.20;99.90;;;;;;5071565;28;20073;-68
2021/09/21 09:06:06;;;;;;;16.67;10.50;;;16.40;99.90;;;;;;5076301;28;20041;-67
2021/09/21 09:11:22;;;;;;;16.55;10.38;;;16.60;99.90;;;;;;5110143;27;20304;-65
2021/09/21 09:13:58;;;;;;;14.57;10.68;;;16.70;99.90;;;;;;5102242;28;20031;-68
2021/09/21 09:16:27;;;;;;;14.52;9.80;;;16.70;99.90;;;;;;5094103;28;20465;-68
2021/09/21 09:19:05;;;;;;;17.33;10.68;;;16.80;99.90;;;;;;5110697;28;20024;-68
2021/09/21 09:21:33;;;;;;;15.35;9.80;;;16.40;99.90;;;;;;5109427;28;20040;-66
2021/09/21 09:23:59;;;;;;;14.65;9.70;;;16.90;99.90;;;;;;5109135;28;20552;-68
2021/09/21 09:26:25;;;;;;;15.07;9.05;;;17.40;99.90;;;;;;5090283;28;20024;-68
2021/09/21 09:28:54;;;;;;;14.65;8.50;;;17.70;99.90;;;;;;5091933;28;20066;-68
2021/09/21 09:31:29;;;;;;;15.98;7.93;;;18.00;99.90;;;;;;5086485;28;20050;-68
2021/09/21 09:34:18;;;;;;;11.55;7.63;;;17.60;99.90;;;;;;5109621;28;20055;-68
2021/09/21 09:36:47;;;;;;;9.15;6.57;;;18.20;99.90;;;;;;5108880;28;20106;-68
2021/09/21 09:39:15;;;;;;;10.98;6.82;;;18.20;99.90;;;;;;5110675;28;20030;-66
2021/09/21 09:41:42;;;;;;;11.05;6.03;;;18.40;99.90;;;;;;5101594;28;20101;-67
2021/09/21 09:44:12;;;;;;;8.02;6.13;;;18.20;99.90;;;;;;5094395;28;20477;-67
2021/09/21 09:49:26;;;;;;;9.85;6.43;;;17.90;99.90;;;;;;5110511;27;20408;-66
2021/09/21 09:51:53;;;;;;;6.60;5.28;;;17.40;99.90;;;;;;5109812;28;20016;-66
2021/09/21 09:54:19;;;;;;;6.88;5.20;;;17.60;99.90;;;;;;5109961;28;20030;-66
2021/09/21 09:56:46;;;;;;;9.10;5.72;;;17.40;99.90;;;;;;5109575;28;20422;-68
2021/09/21 09:59:15;;;;;;;6.07;4.28;;;17.50;99.90;;;;;;5109425;28;20111;-68
2021/09/21 10:01:42;;;;;;;5.32;3.33;;;17.80;99.90;;;;;;5108284;28;20024;-65
2021/09/21 10:04:07;;;;;;;7.80;4.90;;;17.70;99.90;;;;;;5109720;28;20033;-68
2021/09/21 10:06:34;;;;;;;8.50;5.05;;;17.60;99.90;;;;;;5110365;28;20381;-69
2021/09/21 10:09:00;;;;;;;6.13;3.95;;;17.60;99.90;;;;;;5109219;28;20032;-67
2021/09/21 10:11:27;;;;;;;6.50;4.40;;;17.60;99.90;;;;;;5109426;28;20031;-68
2021/09/21 10:13:53;;;;;;;7.85;4.75;;;17.80;99.90;;;;;;5108714;28;20023;-67
2021/09/21 10:16:20;;;;;;;6.97;5.00;;;18.20;99.90;;;;;;5108853;28;20499;-67
2021/09/21 10:18:52;;;;;;;7.97;4.85;;;18.60;99.90;;;;;;5109064;28;20027;-67
2021/09/21 10:21:31;;;;;;;5.05;3.55;;;18.60;99.90;;;;;;5108417;28;20028;-67
2021/09/21 10:23:59;;;;;;;6.20;3.60;;;18.50;99.90;;;;;;5108948;28;20053;-67
2021/09/21 10:26:26;;;;;;;6.70;3.70;;;18.50;99.90;;;;;;5110598;28;20077;-67
2021/09/21 10:28:51;;;;;;;7.55;3.95;;;18.50;99.90;;;;;;5109021;28;20488;-68
2021/09/21 10:31:20;;;;;;;9.27;6.63;;;18.80;99.90;;;;;;5109058;28;20043;-68
2021/09/21 10:33:46;;;;;;;6.78;4.40;;;18.80;99.90;;;;;;5109579;28;20501;-67
2021/09/21 10:36:17;;;;;;;8.95;4.80;;;18.80;99.90;;;;;;5109675;28;20032;-68
2021/09/21 10:39:07;;;;;;;6.07;4.85;;;18.40;99.90;;;;;;5109693;28;20024;-67
2021/09/21 10:41:44;;;;;;;7.68;4.47;;;18.10;99.90;;;;;;5108676;28;20035;-67
2021/09/21 10:44:10;;;;;;;7.28;4.63;;;18.10;99.90;;;;;;5109824;28;20058;-68
2021/09/21 10:52:16;;;;;;;5.72;4.90;;;18.30;99.90;;;;;;5070008;28;20418;-68
2021/09/21 10:54:49;;;;;;;7.38;5.15;;;18.20;99.90;;;;;;5053809;28;20364;-68
2021/09/21 10:57:26;;;;;;;9.43;4.63;;;18.10;99.90;;;;;;5067106;28;20062;-68
2021/09/21 10:59:58;;;;;;;6.40;4.47;;;18.20;99.90;;;;;;5069426;28;20020;-68
2021/09/21 11:02:28;;;;;;;6.23;4.43;;;19.00;99.90;;;;;;5030167;28;20435;-68
2021/09/21 11:04:54;;;;;;;6.45;4.57;;;19.30;99.90;;;;;;5044361;28;20018;-68
2021/09/21 11:07:19;;;;;;;9.70;4.80;;;19.50;99.90;;;;;;5069910;28;20028;-68
2021/09/21 11:09:51;;;;;;;8.10;4.25;;;19.50;99.90;;;;;;5063294;28;20032;-67
2021/09/21 11:12:19;;;;;;;5.30;4.05;;;19.40;99.90;;;;;;5069634;28;20021;-68
2021/09/21 11:14:46;;;;;;;6.05;4.05;;;19.30;99.90;;;;;;5059749;28;20044;-67
2021/09/21 11:17:12;;;;;;;5.97;4.07;;;19.30;99.90;;;;;;5069754;28;20052;-67
2021/09/21 11:19:38;;;;;;;5.38;4.00;;;19.70;99.90;;;;;;5061483;28;20048;-68
2021/09/21 11:22:07;;;;;;;6.53;4.32;;;19.70;99.90;;;;;;5049806;28;20102;-68
2021/09/21 11:24:36;;;;;;;7.53;4.25;;;19.00;99.90;;;;;;5057161;28;20471;-68
2021/09/21 11:27:04;;;;;;;7.75;4.90;;;19.10;99.90;;;;;;5051351;28;20033;-67
2021/09/21 11:29:31;;;;;;;6.45;5.07;;;19.20;99.90;;;;;;5053030;28;20036;-68
2021/09/21 11:31:57;;;;;;;4.28;3.88;;;18.70;99.90;;;;;;5051901;28;20025;-67
2021/09/21 11:34:28;;;;;;;5.30;4.40;;;19.00;99.90;;;;;;5055143;28;20029;-67
2021/09/21 11:36:54;;;;;;;5.55;4.07;;;19.20;99.90;;;;;;5049111;28;20363;-68
2021/09/21 11:39:26;;;;;;;5.75;4.72;;;19.40;99.90;;;;;;5049614;28;20467;-67
2021/09/21 11:41:53;;;;;;;5.53;3.92;;;19.60;99.90;;;;;;5049582;28;20033;-68
2021/09/21 11:44:18;;;;;;;8.20;5.72;;;19.80;99.90;;;;;;5056866;28;20032;-67
2021/09/21 11:46:44;;;;;;;5.30;4.10;;;19.90;99.90;;;;;;5057636;28;20029;-67
2021/09/21 11:49:09;;;;;;;7.00;4.40;;;19.40;99.90;;;;;;5028831;28;20442;-67
2021/09/21 11:51:38;;;;;;;6.50;4.55;;;19.60;99.90;;;;;;5045055;28;20436;-68
2021/09/21 11:54:05;;;;;;;6.35;4.45;;;19.70;99.90;;;;;;5053843;28;20021;-68
2021/09/21 11:56:30;;;;;;;8.75;5.38;;;20.00;99.90;;;;;;5048123;28;20385;-68
2021/09/21 11:58:59;;;;;;;8.07;4.95;;;19.80;99.90;;;;;;5064584;28;20032;-67
2021/09/21 12:01:25;;;;;;;11.45;4.95;;;19.60;99.90;;;;;;5068183;28;20021;-68
2021/09/21 12:03:53;;;;;;;7.03;4.25;;;19.60;99.80;;;;;;5040512;28;20083;-67
2021/09/21 12:06:30;;;;;;;4.93;4.03;;;19.30;99.90;;;;;;5035532;28;20025;-67
2021/09/21 12:08:55;;;;;;;5.72;3.35;;;19.30;99.90;;;;;;5049765;28;20032;-68
2021/09/21 12:11:21;;;;;;;5.47;3.85;;;19.30;99.90;;;;;;5036817;28;20033;-67
2021/09/21 12:13:48;;;;;;;5.50;3.67;;;19.20;99.90;;;;;;5045872;28;20533;-68
2021/09/21 12:16:14;;;;;;;5.00;4.00;;;19.40;99.90;;;;;;5055955;28;20090;-68
2021/09/21 12:18:41;;;;;;;5.70;3.53;;;19.30;99.90;;;;;;5043629;28;20033;-68
2021/09/21 12:21:10;;;;;;;4.25;3.85;;;19.30;99.90;;;;;;5049914;28;20036;-68
2021/09/21 12:23:38;;;;;;;4.57;3.47;;;18.80;99.50;;;;;;5042686;28;20044;-68
2021/09/21 12:26:07;;;;;;;5.95;3.45;;;19.10;99.90;;;;;;5035936;28;20108;-67
2021/09/21 12:28:36;;;;;;;4.47;3.20;;;19.20;99.90;;;;;;5048917;28;20537;-67
2021/09/21 12:31:27;;;;;;;4.63;3.55;;;19.40;99.90;;;;;;5052285;28;20040;-67
2021/09/21 12:33:56;;;;;;;4.60;3.65;;;19.50;98.90;;;;;;5041182;28;20035;-67
2021/09/21 12:36:25;;;;;;;7.45;3.80;;;19.60;99.90;;;;;;5036692;28;20036;-67
2021/09/21 12:39:09;;;;;;;6.72;3.47;;;19.50;98.90;;;;;;5037229;28;20134;-67
2021/09/21 12:41:39;;;;;;;4.72;3.75;;;19.70;99.90;;;;;;5041208;28;20044;-68
2021/09/21 12:44:07;;;;;;;3.40;3.10;;;19.30;98.50;;;;;;5035672;28;20048;-67
2021/09/21 12:46:34;;;;;;;4.38;3.28;;;19.40;99.30;;;;;;5035323;28;20025;-67
2021/09/21 12:49:00;;;;;;;7.13;3.85;;;19.20;98.40;;;;;;5039441;28;20021;-67
2021/09/21 12:51:36;;;;;;;5.28;3.35;;;19.10;99.60;;;;;;5043989;28;20052;-67
2021/09/21 12:54:03;;;;;;;5.55;3.70;;;19.40;99.50;;;;;;5049697;28;20017;-68
2021/09/21 12:56:31;;;;;;;4.18;3.75;;;19.60;99.00;;;;;;5043224;28;20093;-68
2021/09/21 12:59:06;;;;;;;4.95;3.92;;;19.60;98.30;;;;;;5035718;28;20052;-68